Time;durP1;ratioP1;P1;durP2;ratioP2;P2;SDS_P1;SDS_P2;PMS_P1;PMS_P2;Temp;Humidity;BMP_temperature;BMP_pressure;BME280_temperature;BME280_humidity;BME280_pressure;Samples;Min_cycle;Max_cycle;Signal;HPM_P1;HPM_P2
2021/12/06 00:00:58;;;;;;;8.40;6.47;;;3.50;99.90;;;;;;5082261;28;20129;-76
2021/12/06 00:03:34;;;;;;;10.07;8.00;;;3.40;99.90;;;;;;5065183;28;20044;-76
2021/12/06 00:06:02;;;;;;;6.10;5.67;;;3.40;99.90;;;;;;5082720;28;20048;-76
2021/12/06 00:08:27;;;;;;;8.30;6.87;;;3.50;99.90;;;;;;5082930;28;20036;-76
2021/12/06 00:10:53;;;;;;;6.87;6.27;;;3.40;99.90;;;;;;5082555;28;20067;-76
2021/12/06 00:13:22;;;;;;;7.03;6.33;;;3.40;99.90;;;;;;5083272;28;20044;-75
2021/12/06 00:15:49;;;;;;;8.03;6.60;;;3.40;99.90;;;;;;5081401;28;20048;-76
2021/12/06 00:18:16;;;;;;;7.23;6.63;;;3.30;99.90;;;;;;5083225;28;20036;-76
2021/12/06 00:20:42;;;;;;;7.67;6.97;;;3.30;99.90;;;;;;5065091;28;20055;-76
2021/12/06 00:23:07;;;;;;;6.37;4.83;;;3.30;99.90;;;;;;5082734;28;20483;-76
2021/12/06 00:25:33;;;;;;;11.50;6.47;;;3.40;99.90;;;;;;5084738;28;20048;-75
2021/12/06 00:27:59;;;;;;;10.27;6.27;;;3.40;99.90;;;;;;5068410;28;20560;-76
2021/12/06 00:30:24;;;;;;;7.40;4.87;;;3.40;99.90;;;;;;5067479;28;20048;-76
2021/12/06 00:32:50;;;;;;;6.07;5.53;;;3.40;99.90;;;;;;5087241;28;20081;-76
2021/12/06 00:35:22;;;;;;;7.83;7.13;;;3.40;99.90;;;;;;5086795;28;20505;-75
2021/12/06 00:38:00;;;;;;;6.78;6.15;;;3.40;99.90;;;;;;5087169;28;20043;-76
2021/12/06 00:40:47;;;;;;;7.10;6.53;;;3.40;99.90;;;;;;5068054;28;20091;-76
2021/12/06 00:43:15;;;;;;;9.27;6.87;;;3.40;99.90;;;;;;5086599;28;20075;-76
2021/12/06 00:45:41;;;;;;;10.03;7.60;;;3.40;99.90;;;;;;5067207;28;20083;-76
2021/12/06 00:48:07;;;;;;;8.83;8.03;;;3.40;99.90;;;;;;5085787;28;20048;-76
2021/12/06 00:50:35;;;;;;;9.77;7.50;;;3.40;99.90;;;;;;5086227;28;20047;-76
2021/12/06 00:53:02;;;;;;;7.07;6.57;;;3.40;99.90;;;;;;5085602;28;20052;-76
2021/12/06 00:55:27;;;;;;;8.73;8.13;;;3.40;99.90;;;;;;5086256;28;20044;-76
2021/12/06 00:57:54;;;;;;;8.77;6.63;;;3.40;99.90;;;;;;5067704;28;20052;-76
2021/12/06 01:00:24;;;;;;;8.93;7.60;;;3.40;99.90;;;;;;5085630;28;20074;-76
2021/12/06 01:02:50;;;;;;;9.90;7.43;;;3.40;99.90;;;;;;5052247;28;20048;-76
2021/12/06 01:05:16;;;;;;;12.57;9.87;;;3.40;99.90;;;;;;5068238;28;20070;-76
2021/12/06 01:07:42;;;;;;;10.83;9.70;;;3.40;99.90;;;;;;5067862;28;20044;-76
2021/12/06 01:10:09;;;;;;;5.60;4.97;;;3.40;99.90;;;;;;5085564;28;20040;-75
2021/12/06 01:12:35;;;;;;;10.97;8.23;;;3.50;99.90;;;;;;5085816;28;20075;-76
2021/12/06 01:15:02;;;;;;;6.27;5.67;;;3.50;99.90;;;;;;5084831;28;20043;-76
2021/12/06 01:17:28;;;;;;;11.23;8.30;;;3.50;99.90;;;;;;5085957;28;20093;-76
2021/12/06 01:19:53;;;;;;;10.80;9.90;;;3.50;99.90;;;;;;5067240;28;20470;-76
2021/12/06 01:24:53;;;;;;;9.23;8.27;;;3.40;99.90;;;;;;5085667;28;20044;-75
2021/12/06 01:40:19;;;;;;;9.90;9.23;;;3.50;99.90;;;;;;5087312;28;20131;-76
2021/12/06 01:42:44;;;;;;;9.77;8.43;;;3.50;99.90;;;;;;5105616;28;20400;-76
2021/12/06 01:45:10;;;;;;;9.17;7.87;;;3.50;99.90;;;;;;5104625;28;20124;-76
2021/12/06 01:47:38;;;;;;;12.90;7.63;;;3.50;99.90;;;;;;5086955;28;20513;-75
2021/12/06 01:50:09;;;;;;;14.63;11.70;;;3.50;99.90;;;;;;5087048;28;20058;-75
2021/12/06 01:52:40;;;;;;;10.43;7.93;;;3.50;99.90;;;;;;5105194;28;20046;-76
2021/12/06 01:55:10;;;;;;;13.10;7.33;;;3.50;99.90;;;;;;5105335;28;20094;-76
2021/12/06 01:57:36;;;;;;;18.40;11.63;;;3.50;99.90;;;;;;5105435;28;20043;-76
2021/12/06 02:00:09;;;;;;;15.33;8.80;;;3.50;99.90;;;;;;5104167;28;20032;-76
2021/12/06 02:02:35;;;;;;;12.87;8.47;;;3.50;99.90;;;;;;5105187;28;20137;-76
2021/12/06 02:05:00;;;;;;;11.97;10.00;;;3.50;99.90;;;;;;5105072;28;20052;-76
2021/12/06 02:07:27;;;;;;;8.50;7.70;;;3.60;99.90;;;;;;5104965;28;20108;-76
2021/12/06 02:09:54;;;;;;;10.47;9.47;;;3.50;99.90;;;;;;5104559;28;20066;-76
2021/12/06 02:12:20;;;;;;;11.63;10.57;;;3.50;99.90;;;;;;5086776;22;20077;-78
2021/12/06 02:15:07;;;;;;;10.97;9.07;;;3.50;99.90;;;;;;5044661;28;20087;-78
2021/12/06 02:17:39;;;;;;;10.83;9.87;;;3.60;99.90;;;;;;5026786;28;20084;-78
2021/12/06 02:20:14;;;;;;;8.45;7.75;;;3.50;99.90;;;;;;5026352;28;20045;-78
2021/12/06 02:22:40;;;;;;;11.03;10.03;;;3.50;99.90;;;;;;5044423;28;20128;-78
2021/12/06 02:25:09;;;;;;;14.03;10.60;;;3.50;99.90;;;;;;5026745;28;20124;-78
2021/12/06 02:27:35;;;;;;;12.73;7.80;;;3.60;99.90;;;;;;5026971;28;20083;-78
2021/12/06 02:30:05;;;;;;;14.40;9.67;;;3.60;99.90;;;;;;5043300;28;20607;-78
2021/12/06 02:32:31;;;;;;;11.73;9.57;;;3.60;99.90;;;;;;5044289;28;20132;-78
2021/12/06 02:34:58;;;;;;;9.93;8.17;;;3.60;99.90;;;;;;5026211;28;20150;-78
2021/12/06 02:37:30;;;;;;;9.57;8.73;;;3.60;99.90;;;;;;5043820;28;20051;-78
2021/12/06 02:39:56;;;;;;;11.43;9.63;;;3.60;99.90;;;;;;5026495;28;20045;-78
2021/12/06 02:42:23;;;;;;;10.90;9.90;;;3.60;99.90;;;;;;5043806;28;20048;-78
2021/12/06 02:44:50;;;;;;;11.30;9.27;;;3.60;99.90;;;;;;5043577;28;20044;-78
2021/12/06 02:47:17;;;;;;;12.77;9.47;;;3.60;99.90;;;;;;5024951;28;20052;-78
2021/12/06 02:49:42;;;;;;;10.60;9.60;;;3.60;99.90;;;;;;5044085;28;20081;-78
2021/12/06 02:52:11;;;;;;;13.00;11.50;;;3.70;99.90;;;;;;5044080;28;20068;-78
2021/12/06 02:54:37;;;;;;;10.20;7.70;;;3.70;99.90;;;;;;5026087;28;20116;-78
2021/12/06 02:59:39;;;;;;;13.37;12.00;;;3.70;99.90;;;;;;5025168;28;20044;-78
2021/12/06 03:02:10;;;;;;;15.20;11.33;;;3.70;99.90;;;;;;5043424;28;20045;-78
2021/12/06 03:04:37;;;;;;;14.60;13.23;;;3.70;99.90;;;;;;5043559;28;20471;-78
2021/12/06 03:07:03;;;;;;;11.90;10.67;;;3.70;99.90;;;;;;5043591;28;20051;-78
2021/12/06 03:09:33;;;;;;;10.23;8.53;;;3.70;99.90;;;;;;5043952;28;20041;-78
2021/12/06 03:12:22;;;;;;;14.53;13.13;;;3.70;99.90;;;;;;5043418;28;20098;-78
2021/12/06 03:14:54;;;;;;;11.30;10.20;;;3.70;99.90;;;;;;5024497;28;20049;-78
2021/12/06 03:17:22;;;;;;;16.43;13.00;;;3.70;99.90;;;;;;5026248;28;20029;-78
2021/12/06 03:19:48;;;;;;;12.50;11.30;;;3.70;99.90;;;;;;5026220;28;20283;-78
2021/12/06 03:22:15;;;;;;;15.43;9.90;;;3.70;99.90;;;;;;5043076;28;20052;-78
2021/12/06 03:24:42;;;;;;;18.43;12.27;;;3.70;99.90;;;;;;5043309;28;20049;-78
2021/12/06 03:27:08;;;;;;;12.17;9.97;;;3.70;99.90;;;;;;5043013;28;20055;-78
2021/12/06 03:29:34;;;;;;;9.33;8.47;;;3.70;99.90;;;;;;5042941;28;20044;-78
2021/12/06 03:32:00;;;;;;;11.40;10.33;;;3.80;99.90;;;;;;5042810;28;20526;-78
2021/12/06 03:34:26;;;;;;;9.47;8.73;;;3.80;99.90;;;;;;5043318;28;20041;-78
2021/12/06 03:36:54;;;;;;;14.90;13.50;;;3.80;99.90;;;;;;5043201;28;20099;-78
2021/12/06 03:39:26;;;;;;;13.33;11.10;;;3.80;99.90;;;;;;5025683;28;20033;-78
2021/12/06 03:41:55;;;;;;;9.45;8.77;;;3.80;99.90;;;;;;5042704;28;20107;-78
2021/12/06 03:44:22;;;;;;;9.57;8.57;;;3.80;99.90;;;;;;5024824;28;20416;-78
2021/12/06 03:46:50;;;;;;;11.80;8.37;;;3.80;99.90;;;;;;5043713;28;20128;-78
2021/12/06 03:49:17;;;;;;;10.40;9.23;;;3.80;99.90;;;;;;5043298;28;20403;-78
2021/12/06 03:51:44;;;;;;;16.03;10.30;;;3.80;99.90;;;;;;5043150;28;20051;-78
2021/12/06 03:54:14;;;;;;;9.87;9.03;;;3.80;99.90;;;;;;5042775;28;20045;-78
2021/12/06 03:56:41;;;;;;;17.53;11.97;;;3.70;99.90;;;;;;5043233;28;20044;-78
2021/12/06 03:59:07;;;;;;;12.30;11.30;;;3.80;99.90;;;;;;5044106;28;20044;-78
2021/12/06 04:01:33;;;;;;;21.10;13.73;;;3.70;99.90;;;;;;5047588;28;20041;-78
2021/12/06 04:04:01;;;;;;;8.57;7.87;;;3.70;99.90;;;;;;5028833;28;20045;-78
2021/12/06 04:06:26;;;;;;;10.87;9.37;;;3.70;99.90;;;;;;5029002;28;20045;-78
2021/12/06 04:08:52;;;;;;;11.07;10.07;;;3.70;99.90;;;;;;5046605;28;20040;-78
2021/12/06 04:11:18;;;;;;;15.50;9.30;;;3.70;99.90;;;;;;5047444;28;20494;-78
2021/12/06 04:13:44;;;;;;;18.23;12.50;;;3.70;99.90;;;;;;5028245;28;20083;-78
2021/12/06 04:16:10;;;;;;;10.93;8.90;;;3.80;99.90;;;;;;5047174;28;20045;-78
2021/12/06 04:18:36;;;;;;;14.33;12.00;;;3.70;99.90;;;;;;5046512;28;20056;-78
2021/12/06 04:21:03;;;;;;;12.73;8.07;;;3.70;99.90;;;;;;5028725;28;20045;-78
2021/12/06 04:23:29;;;;;;;17.90;10.63;;;3.80;99.90;;;;;;5046122;28;20495;-78
2021/12/06 04:25:55;;;;;;;12.30;10.57;;;3.70;99.90;;;;;;5028560;28;20040;-78
2021/12/06 04:28:21;;;;;;;16.97;15.20;;;3.80;99.90;;;;;;5011969;28;20549;-78
2021/12/06 04:30:48;;;;;;;13.27;12.17;;;3.70;99.90;;;;;;5046933;28;20116;-78
2021/12/06 04:33:14;;;;;;;12.07;10.23;;;3.70;99.90;;;;;;5046221;28;20156;-78
2021/12/06 04:35:39;;;;;;;15.57;13.10;;;3.70;99.90;;;;;;5046255;28;20124;-78
2021/12/06 04:38:06;;;;;;;13.73;12.03;;;3.70;99.90;;;;;;5045000;28;20120;-78
2021/12/06 04:40:32;;;;;;;16.67;12.60;;;3.70;99.90;;;;;;5028715;28;20068;-78
2021/12/06 04:42:58;;;;;;;17.37;13.60;;;3.70;99.90;;;;;;5045456;28;20047;-79
2021/12/06 04:45:24;;;;;;;14.53;10.87;;;3.70;99.90;;;;;;5046712;28;20037;-78
2021/12/06 04:47:50;;;;;;;13.53;12.07;;;3.70;99.90;;;;;;5028258;28;20468;-78
2021/12/06 04:50:19;;;;;;;17.60;11.00;;;3.70;99.90;;;;;;5028704;28;20124;-78
2021/12/06 04:52:44;;;;;;;13.87;12.73;;;3.70;99.90;;;;;;5046002;28;20053;-78
2021/12/06 04:55:27;;;;;;;13.30;11.40;;;3.70;99.90;;;;;;5046285;28;21160;-78
2021/12/06 04:57:53;;;;;;;25.33;14.70;;;3.70;99.90;;;;;;5027877;28;20076;-79
2021/12/06 05:00:27;;;;;;;15.73;10.47;;;3.70;99.90;;;;;;5046052;28;20049;-78
2021/12/06 05:02:53;;;;;;;19.17;14.27;;;3.70;99.90;;;;;;5045611;28;20123;-78
2021/12/06 05:05:43;;;;;;;12.00;10.90;;;3.70;99.90;;;;;;5028689;28;20041;-78
2021/12/06 05:08:22;;;;;;;13.30;12.10;;;3.70;99.90;;;;;;5044780;28;20108;-78
2021/12/06 05:10:49;;;;;;;13.77;12.23;;;3.70;99.90;;;;;;5045453;28;20088;-78
2021/12/06 05:13:15;;;;;;;12.43;11.20;;;3.70;99.90;;;;;;5044503;28;20056;-78
2021/12/06 05:15:43;;;;;;;12.37;11.27;;;3.70;99.90;;;;;;5045915;28;20049;-78
2021/12/06 05:18:09;;;;;;;13.00;11.73;;;3.70;99.90;;;;;;5027756;28;20080;-78
2021/12/06 05:20:35;;;;;;;16.87;14.33;;;3.70;99.90;;;;;;5028010;28;20087;-78
2021/12/06 05:23:03;;;;;;;13.90;10.70;;;3.70;99.90;;;;;;5027286;28;20045;-78
2021/12/06 05:25:29;;;;;;;14.20;12.20;;;3.70;99.90;;;;;;5028000;28;20656;-78
2021/12/06 05:27:56;;;;;;;12.87;11.43;;;3.70;99.90;;;;;;5044386;28;20041;-78
2021/12/06 05:30:24;;;;;;;18.57;12.10;;;3.70;99.90;;;;;;5044141;28;20049;-78
2021/12/06 05:32:51;;;;;;;16.50;12.33;;;3.80;99.90;;;;;;5028349;28;20048;-78
2021/12/06 05:35:17;;;;;;;15.70;13.87;;;3.80;99.90;;;;;;5045945;28;20450;-78
2021/12/06 05:37:46;;;;;;;16.47;13.50;;;3.80;99.90;;;;;;5045491;28;20120;-78
2021/12/06 05:40:19;;;;;;;18.77;11.00;;;3.80;99.90;;;;;;5027482;28;20056;-78
2021/12/06 05:42:45;;;;;;;11.40;10.30;;;3.70;99.90;;;;;;5045387;28;20080;-78
2021/12/06 05:45:11;;;;;;;11.57;10.47;;;3.80;99.90;;;;;;5044454;28;20550;-78
2021/12/06 05:47:37;;;;;;;24.23;12.93;;;3.70;99.90;;;;;;5044870;28;20557;-78
2021/12/06 05:50:04;;;;;;;13.83;12.53;;;3.70;99.90;;;;;;5026707;28;20041;-78
2021/12/06 05:52:30;;;;;;;18.37;14.10;;;3.70;99.90;;;;;;5044683;28;20098;-78
2021/12/06 05:54:55;;;;;;;15.27;13.47;;;3.70;99.90;;;;;;5044982;28;20132;-78
2021/12/06 05:57:21;;;;;;;12.10;10.73;;;3.70;99.90;;;;;;5027306;28;20037;-78
2021/12/06 05:59:46;;;;;;;19.50;12.90;;;3.70;99.90;;;;;;5042883;28;20045;-78
2021/12/06 06:02:12;;;;;;;14.00;11.77;;;3.70;99.90;;;;;;5044646;28;20179;-78
2021/12/06 06:04:39;;;;;;;12.50;11.27;;;3.70;99.90;;;;;;5044652;28;20076;-79
2021/12/06 06:07:06;;;;;;;14.80;11.33;;;3.70;99.90;;;;;;5044649;28;20049;-79
2021/12/06 06:09:32;;;;;;;12.77;11.57;;;3.70;99.90;;;;;;5045164;28;20076;-79
2021/12/06 06:11:57;;;;;;;12.80;9.33;;;3.70;99.90;;;;;;5044014;28;20060;-79
2021/12/06 06:14:23;;;;;;;11.80;10.70;;;3.70;99.90;;;;;;5043868;28;20043;-79
2021/12/06 06:16:53;;;;;;;11.00;9.80;;;3.70;99.90;;;;;;5045385;28;20504;-79
2021/12/06 06:19:22;;;;;;;14.27;11.33;;;3.70;99.90;;;;;;5027448;28;20103;-79
2021/12/06 06:21:48;;;;;;;11.50;10.40;;;3.70;99.90;;;;;;5043564;28;20049;-80
2021/12/06 06:24:14;;;;;;;11.27;9.30;;;3.70;99.90;;;;;;5026443;28;20044;-79
2021/12/06 06:26:40;;;;;;;12.87;10.13;;;3.80;99.90;;;;;;5044475;28;20041;-79
2021/12/06 06:29:06;;;;;;;14.33;12.00;;;3.80;99.90;;;;;;5041849;28;20541;-79
2021/12/06 06:31:32;;;;;;;13.13;11.83;;;3.90;99.90;;;;;;5044930;28;20119;-79
2021/12/06 06:33:58;;;;;;;11.93;10.93;;;3.80;99.90;;;;;;5044046;28;20049;-79
2021/12/06 06:36:24;;;;;;;12.97;10.70;;;3.80;99.90;;;;;;5044308;28;20832;-79
2021/12/06 06:38:49;;;;;;;15.03;10.70;;;3.90;99.90;;;;;;5044447;28;20035;-79
2021/12/06 06:41:15;;;;;;;13.23;11.93;;;3.80;99.90;;;;;;5044480;28;20048;-77
2021/12/06 06:43:41;;;;;;;11.53;10.60;;;3.80;99.90;;;;;;5025703;28;20052;-79
2021/12/06 06:46:07;;;;;;;15.97;11.60;;;3.80;99.90;;;;;;5025593;28;20532;-79
2021/12/06 06:48:33;;;;;;;13.00;10.07;;;3.80;99.90;;;;;;5044410;28;20116;-79
2021/12/06 06:50:59;;;;;;;13.37;11.37;;;3.80;99.90;;;;;;5026522;28;20593;-87
2021/12/06 06:53:29;;;;;;;15.90;9.53;;;3.80;99.90;;;;;;5028007;28;20037;-84
2021/12/06 06:55:57;;;;;;;14.17;10.93;;;3.80;99.90;;;;;;5004688;28;20049;-85
2021/12/06 06:58:23;;;;;;;12.73;11.43;;;3.80;99.90;;;;;;5015294;28;20052;-79
2021/12/06 07:00:49;;;;;;;14.57;12.67;;;3.80;99.90;;;;;;5053922;28;20379;-77
2021/12/06 07:03:15;;;;;;;14.47;8.43;;;3.80;99.90;;;;;;5063824;28;20066;-78
2021/12/06 07:05:41;;;;;;;11.30;10.20;;;3.80;99.90;;;;;;5046168;28;20044;-77
2021/12/06 07:08:07;;;;;;;11.00;10.10;;;3.80;99.90;;;;;;5040631;28;20447;-78
2021/12/06 07:10:33;;;;;;;12.20;10.50;;;3.80;99.90;;;;;;5061524;28;20048;-79
2021/12/06 07:13:03;;;;;;;12.27;11.10;;;3.80;99.90;;;;;;5060996;28;20143;-82
2021/12/06 07:15:32;;;;;;;16.20;11.63;;;3.80;99.90;;;;;;5043064;28;20053;-76
2021/12/06 07:17:58;;;;;;;10.03;9.07;;;3.80;99.90;;;;;;5042771;28;20037;-76
2021/12/06 07:20:24;;;;;;;19.80;11.20;;;3.80;99.90;;;;;;5042954;28;20048;-76
2021/12/06 07:22:53;;;;;;;10.37;9.37;;;3.80;99.90;;;;;;5041670;28;20041;-76
2021/12/06 07:25:21;;;;;;;8.83;8.17;;;3.80;99.90;;;;;;5021189;28;20081;-76
2021/12/06 07:27:48;;;;;;;12.33;11.13;;;3.80;99.90;;;;;;5005162;28;20395;-76
2021/12/06 07:30:15;;;;;;;17.27;10.97;;;3.80;99.90;;;;;;5041170;28;20052;-76
2021/12/06 07:32:41;;;;;;;9.73;8.50;;;3.80;99.90;;;;;;5042871;28;20286;-76
2021/12/06 07:35:08;;;;;;;13.43;11.47;;;3.80;99.90;;;;;;5041598;28;20037;-76
2021/12/06 07:37:34;;;;;;;10.20;9.30;;;3.80;99.90;;;;;;5042700;28;20076;-76
2021/12/06 07:40:01;;;;;;;10.70;9.90;;;3.80;99.90;;;;;;5024109;28;20130;-77
2021/12/06 07:42:27;;;;;;;12.70;9.03;;;3.80;99.90;;;;;;5042801;28;20037;-77
2021/12/06 07:44:52;;;;;;;19.10;12.43;;;3.80;99.90;;;;;;5041848;28;20033;-76
2021/12/06 07:47:19;;;;;;;12.13;11.03;;;3.80;99.90;;;;;;5024624;28;20095;-76
2021/12/06 07:49:45;;;;;;;14.63;11.37;;;3.80;99.90;;;;;;5042803;28;20049;-76
2021/12/06 07:52:11;;;;;;;13.43;10.37;;;3.80;99.90;;;;;;5042521;28;20049;-76
2021/12/06 07:54:38;;;;;;;11.97;10.83;;;3.80;99.90;;;;;;5042028;28;20041;-76
2021/12/06 07:57:05;;;;;;;20.80;8.90;;;3.80;99.90;;;;;;5024837;28;20049;-76
2021/12/06 07:59:31;;;;;;;18.50;9.33;;;3.80;99.90;;;;;;5024153;28;20139;-76
2021/12/06 08:01:56;;;;;;;11.80;9.10;;;3.80;99.90;;;;;;5042070;28;20171;-76
2021/12/06 08:04:22;;;;;;;21.43;10.93;;;3.80;99.90;;;;;;5025104;28;20041;-76
2021/12/06 08:06:48;;;;;;;12.97;11.63;;;3.80;99.90;;;;;;5042320;28;20522;-76
2021/12/06 08:09:14;;;;;;;16.20;9.40;;;3.90;99.90;;;;;;5042130;28;20196;-76
2021/12/06 08:11:41;;;;;;;12.40;10.30;;;3.80;99.90;;;;;;5042475;28;20075;-76
2021/12/06 08:14:08;;;;;;;13.77;12.00;;;3.80;99.90;;;;;;5041730;28;20514;-76
2021/12/06 08:16:39;;;;;;;22.47;11.43;;;3.80;99.90;;;;;;5025169;28;20506;-76
2021/12/06 08:19:06;;;;;;;13.73;12.37;;;3.80;99.90;;;;;;5042190;28;20171;-76
2021/12/06 08:21:31;;;;;;;14.33;11.07;;;3.80;99.90;;;;;;5042731;28;20060;-76
2021/12/06 08:23:58;;;;;;;10.93;9.73;;;3.80;99.90;;;;;;5024537;28;20038;-76
2021/12/06 08:26:27;;;;;;;21.57;10.67;;;3.90;99.90;;;;;;5041969;28;20187;-76
2021/12/06 08:28:54;;;;;;;12.23;9.43;;;3.80;99.90;;;;;;5034110;28;20349;-76
2021/12/06 08:31:19;;;;;;;20.13;13.90;;;3.90;99.90;;;;;;5022418;28;20040;-76
2021/12/06 08:33:46;;;;;;;14.70;12.10;;;3.80;99.90;;;;;;5021152;28;20037;-76
2021/12/06 08:36:12;;;;;;;11.47;9.93;;;3.90;99.90;;;;;;5015890;28;20124;-76
2021/12/06 08:38:39;;;;;;;13.17;10.90;;;3.90;99.90;;;;;;5022344;28;20134;-76
2021/12/06 08:41:09;;;;;;;19.00;9.43;;;3.80;99.90;;;;;;5037250;28;20128;-76
2021/12/06 08:43:35;;;;;;;13.47;10.13;;;3.90;99.90;;;;;;5019601;28;20056;-76
2021/12/06 08:46:07;;;;;;;16.73;11.30;;;3.90;99.90;;;;;;5023292;28;20042;-75
2021/12/06 08:48:35;;;;;;;9.13;8.40;;;3.90;99.90;;;;;;5008249;28;20049;-76
2021/12/06 08:51:19;;;;;;;21.37;13.03;;;3.90;99.90;;;;;;4991027;28;20048;-76
2021/12/06 08:53:45;;;;;;;13.57;10.10;;;3.80;99.90;;;;;;5017954;28;20045;-75
2021/12/06 08:56:11;;;;;;;10.37;7.70;;;3.90;99.90;;;;;;5045833;28;20065;-76
2021/12/06 08:58:37;;;;;;;13.00;10.97;;;3.90;99.90;;;;;;5045334;28;20048;-75
2021/12/06 09:01:04;;;;;;;12.63;11.17;;;3.90;99.90;;;;;;5044664;28;20037;-76
2021/12/06 09:03:30;;;;;;;15.97;12.00;;;3.90;99.90;;;;;;5011763;28;20118;-76
2021/12/06 09:05:56;;;;;;;15.17;9.93;;;3.90;99.90;;;;;;5044709;28;20037;-76
2021/12/06 09:08:23;;;;;;;9.83;8.73;;;4.00;99.90;;;;;;5045691;28;20047;-76
2021/12/06 09:10:51;;;;;;;16.53;12.93;;;3.90;99.90;;;;;;5046206;28;20490;-76
2021/12/06 09:13:19;;;;;;;11.73;10.60;;;3.90;99.90;;;;;;5025958;28;20060;-75
2021/12/06 09:15:45;;;;;;;11.17;9.67;;;4.00;99.90;;;;;;5046251;28;20052;-76
2021/12/06 09:18:11;;;;;;;14.90;12.57;;;4.00;99.90;;;;;;5028017;28;20520;-75
2021/12/06 09:20:40;;;;;;;13.63;9.53;;;4.00;99.90;;;;;;5027583;28;20116;-76
2021/12/06 09:23:07;;;;;;;14.30;11.77;;;4.10;99.90;;;;;;5010650;28;20041;-75
2021/12/06 09:25:34;;;;;;;10.93;9.63;;;4.10;99.90;;;;;;5044751;28;20040;-76
2021/12/06 09:28:01;;;;;;;16.87;10.43;;;4.10;99.90;;;;;;5026587;28;20051;-76
2021/12/06 09:30:29;;;;;;;15.57;14.17;;;4.10;99.90;;;;;;5045818;28;20091;-75
2021/12/06 09:32:57;;;;;;;13.47;12.13;;;4.10;99.90;;;;;;5045037;28;20056;-76
2021/12/06 09:35:26;;;;;;;16.70;10.30;;;4.10;99.90;;;;;;5045821;28;20045;-75
2021/12/06 09:37:54;;;;;;;16.83;10.50;;;4.10;99.90;;;;;;5045023;28;20044;-75
2021/12/06 09:40:21;;;;;;;13.57;11.33;;;4.10;99.90;;;;;;5028268;28;20380;-76
2021/12/06 09:42:47;;;;;;;14.63;10.93;;;4.10;99.90;;;;;;5045087;28;20053;-76
2021/12/06 09:45:18;;;;;;;16.27;13.97;;;4.10;99.90;;;;;;5027000;28;20052;-76
2021/12/06 09:47:50;;;;;;;17.13;12.97;;;4.10;99.90;;;;;;5027276;28;20053;-76
2021/12/06 09:50:18;;;;;;;21.02;14.27;;;4.10;99.90;;;;;;5045219;28;20399;-76
2021/12/06 09:52:43;;;;;;;11.60;10.23;;;4.10;99.90;;;;;;5027272;28;20554;-76
2021/12/06 09:55:09;;;;;;;17.13;10.40;;;4.20;99.90;;;;;;5044754;28;20120;-76
2021/12/06 09:57:35;;;;;;;15.97;10.57;;;4.20;99.90;;;;;;5025750;28;20121;-76
2021/12/06 10:00:03;;;;;;;16.67;14.07;;;4.20;99.90;;;;;;5043062;28;20446;-76
2021/12/06 10:02:29;;;;;;;19.63;15.93;;;4.20;99.90;;;;;;5044455;28;20045;-76
2021/12/06 10:04:55;;;;;;;26.43;12.53;;;4.20;99.90;;;;;;5043955;28;20048;-77
2021/12/06 10:07:23;;;;;;;21.77;14.40;;;4.20;99.90;;;;;;5026225;28;20040;-77
2021/12/06 10:09:50;;;;;;;21.93;12.57;;;4.20;99.90;;;;;;5043396;28;20037;-77
2021/12/06 10:12:17;;;;;;;19.20;14.07;;;4.20;99.90;;;;;;5043347;28;20049;-77
2021/12/06 10:14:47;;;;;;;17.67;13.10;;;4.30;99.90;;;;;;5044579;28;20037;-77
2021/12/06 10:17:15;;;;;;;12.20;10.53;;;4.30;99.90;;;;;;5043747;28;20044;-77
2021/12/06 10:19:41;;;;;;;13.90;12.30;;;4.30;99.90;;;;;;5026465;28;20302;-76
2021/12/06 10:22:07;;;;;;;22.93;13.87;;;4.30;99.90;;;;;;5043755;28;20041;-76
2021/12/06 10:24:34;;;;;;;17.93;13.30;;;4.30;99.90;;;;;;5044037;28;20357;-77
2021/12/06 10:27:11;;;;;;;21.17;14.43;;;4.30;99.90;;;;;;5043110;28;20041;-77
2021/12/06 10:29:44;;;;;;;22.40;12.63;;;4.30;99.90;;;;;;5012502;28;20068;-76
2021/12/06 10:32:22;;;;;;;18.87;14.10;;;4.30;99.90;;;;;;5029283;28;20415;-76
2021/12/06 10:34:52;;;;;;;18.40;12.53;;;4.30;99.90;;;;;;5026188;28;20048;-77
2021/12/06 10:37:31;;;;;;;28.03;14.50;;;4.30;99.90;;;;;;5043755;28;20443;-77
2021/12/06 10:39:58;;;;;;;13.73;11.40;;;4.30;99.90;;;;;;5043307;28;20112;-76
2021/12/06 10:42:39;;;;;;;15.43;11.57;;;4.30;99.90;;;;;;5041559;28;20052;-76
2021/12/06 10:45:21;;;;;;;19.57;13.27;;;4.30;99.90;;;;;;5043177;28;20047;-77
2021/12/06 10:48:08;;;;;;;12.20;11.17;;;4.30;99.90;;;;;;5025691;28;20041;-77
2021/12/06 10:50:36;;;;;;;10.97;9.53;;;4.30;99.90;;;;;;5043206;28;20288;-77
2021/12/06 10:53:04;;;;;;;9.47;8.10;;;4.30;99.90;;;;;;5042806;28;20120;-76
2021/12/06 10:55:32;;;;;;;12.07;10.17;;;4.30;99.90;;;;;;5042935;28;20036;-76
2021/12/06 10:58:07;;;;;;;15.10;10.70;;;4.30;99.90;;;;;;5023992;28;20056;-77
2021/12/06 11:00:40;;;;;;;18.93;10.90;;;4.30;99.90;;;;;;5022899;28;20057;-76
2021/12/06 11:03:26;;;;;;;8.90;8.10;;;4.30;99.90;;;;;;5019201;28;20037;-77
2021/12/06 11:06:01;;;;;;;12.70;9.97;;;4.30;99.90;;;;;;5042321;28;20045;-76
2021/12/06 11:08:27;;;;;;;12.00;8.13;;;4.20;99.90;;;;;;5041729;28;20051;-77
2021/12/06 11:11:00;;;;;;;10.97;9.97;;;4.30;99.90;;;;;;5041972;28;20132;-77
2021/12/06 11:13:33;;;;;;;15.60;10.93;;;4.20;99.90;;;;;;5023095;28;20072;-76
2021/12/06 11:16:22;;;;;;;14.15;12.27;;;4.20;99.90;;;;;;5023872;28;20499;-76
2021/12/06 11:18:57;;;;;;;15.77;10.30;;;4.10;99.90;;;;;;5042710;28;20041;-77
2021/12/06 11:21:22;;;;;;;17.63;10.57;;;4.10;99.90;;;;;;5020950;28;20510;-76
2021/12/06 11:24:08;;;;;;;22.23;12.13;;;4.10;99.90;;;;;;5040606;28;20049;-76
2021/12/06 11:26:41;;;;;;;13.77;11.20;;;4.10;99.90;;;;;;5024314;28;20045;-76
2021/12/06 11:29:30;;;;;;;10.77;8.70;;;4.10;99.90;;;;;;5038215;28;20049;-76
2021/12/06 11:32:19;;;;;;;11.90;9.70;;;4.00;99.90;;;;;;5017634;28;20380;-77
2021/12/06 11:34:57;;;;;;;19.80;11.97;;;4.00;99.90;;;;;;5005308;28;20052;-77
2021/12/06 11:37:27;;;;;;;11.53;9.87;;;4.00;99.90;;;;;;5005306;28;20194;-76
2021/12/06 11:40:19;;;;;;;13.30;10.00;;;4.00;99.90;;;;;;5024730;28;20048;-76
2021/12/06 11:42:56;;;;;;;13.73;12.15;;;4.00;99.90;;;;;;5023775;28;20056;-76
2021/12/06 11:45:43;;;;;;;9.60;8.07;;;3.90;99.90;;;;;;5024399;28;20045;-76
2021/12/06 11:48:12;;;;;;;14.00;12.73;;;4.00;99.90;;;;;;5042236;28;20037;-76
2021/12/06 11:50:47;;;;;;;16.60;10.67;;;4.00;99.90;;;;;;5041506;28;20037;-76
2021/12/06 11:53:16;;;;;;;15.00;11.63;;;4.00;99.90;;;;;;5041801;28;20094;-76
2021/12/06 11:55:49;;;;;;;15.63;12.50;;;4.00;99.90;;;;;;5042470;28;20094;-76
2021/12/06 11:58:34;;;;;;;12.40;9.87;;;4.00;99.90;;;;;;5041317;28;20298;-77
2021/12/06 12:01:08;;;;;;;10.20;9.13;;;4.10;99.90;;;;;;5023598;28;20041;-76
2021/12/06 12:03:35;;;;;;;11.57;8.50;;;4.10;99.90;;;;;;5023913;28;20051;-77
2021/12/06 12:06:02;;;;;;;13.83;10.47;;;4.10;99.90;;;;;;5023442;28;20110;-76
2021/12/06 12:08:32;;;;;;;14.63;10.73;;;4.10;99.90;;;;;;5041774;28;20040;-77
2021/12/06 12:10:59;;;;;;;12.27;10.83;;;4.10;99.90;;;;;;5040589;28;20123;-77
2021/12/06 12:13:36;;;;;;;17.53;9.90;;;4.10;99.90;;;;;;5040503;28;20068;-79
2021/12/06 12:16:06;;;;;;;16.43;10.93;;;4.10;99.90;;;;;;5041854;28;20048;-78
2021/12/06 12:18:35;;;;;;;12.33;10.67;;;4.00;99.90;;;;;;5041818;28;20114;-76
2021/12/06 12:21:00;;;;;;;17.60;13.40;;;4.00;99.90;;;;;;5044348;28;20037;-76
2021/12/06 12:23:32;;;;;;;18.57;13.80;;;4.10;99.90;;;;;;5044579;28;20056;-76
2021/12/06 12:26:06;;;;;;;14.30;12.68;;;4.00;99.90;;;;;;5022663;28;20045;-80
2021/12/06 12:28:36;;;;;;;14.43;9.33;;;4.00;99.90;;;;;;5029264;28;20044;-77
2021/12/06 12:31:04;;;;;;;17.47;13.33;;;4.10;99.90;;;;;;5027153;28;20442;-76
2021/12/06 12:33:29;;;;;;;14.50;11.40;;;4.10;99.90;;;;;;5023890;28;20472;-78
2021/12/06 12:36:01;;;;;;;19.70;13.37;;;4.10;99.90;;;;;;5024919;28;20112;-80
2021/12/06 12:38:31;;;;;;;15.93;11.63;;;4.10;99.90;;;;;;5025627;28;20045;-81
2021/12/06 12:41:00;;;;;;;17.87;11.57;;;4.10;99.90;;;;;;5023306;28;20041;-82
2021/12/06 12:43:47;;;;;;;11.13;9.77;;;4.10;99.90;;;;;;5034887;28;20119;-82
2021/12/06 12:46:34;;;;;;;18.53;13.53;;;4.10;99.90;;;;;;5044643;28;20041;-83
2021/12/06 12:49:04;;;;;;;18.92;11.02;;;4.10;99.90;;;;;;5026725;28;20041;-83
2021/12/06 12:51:40;;;;;;;15.30;12.23;;;4.20;99.90;;;;;;5023611;28;20053;-82
2021/12/06 12:54:17;;;;;;;33.83;13.98;;;4.20;99.90;;;;;;5039513;28;20049;-83
2021/12/06 12:57:12;;;;;;;19.13;14.53;;;4.20;99.90;;;;;;5045203;28;20252;-83
2021/12/06 12:59:46;;;;;;;18.67;14.47;;;4.20;99.90;;;;;;5038636;28;20112;-83
2021/12/06 13:02:19;;;;;;;15.80;12.03;;;4.30;99.90;;;;;;5039777;28;20079;-82
2021/12/06 13:04:56;;;;;;;;;;;4.30;99.90;;;;;;5037583;28;20053;-82
2021/12/06 13:07:23;;;;;;;26.33;14.27;;;4.30;99.90;;;;;;5023291;28;19928;-77
2021/12/06 13:09:48;;;;;;;15.17;13.67;;;4.30;99.90;;;;;;5017208;28;20077;-76